sensor_id;sensor_type;location;lat;lon;timestamp;pressure;altitude;pressure_sealevel;temperature
67515;BMP280;60646;55.802;37.032;2024-02-28T00:01:38;100692.28;;;1.86
67515;BMP280;60646;55.802;37.032;2024-02-28T00:04:13;100692.31;;;1.82
67515;BMP280;60646;55.802;37.032;2024-02-28T00:06:39;100711.78;;;1.92
67515;BMP280;60646;55.802;37.032;2024-02-28T00:09:05;100705.84;;;1.85
67515;BMP280;60646;55.802;37.032;2024-02-28T00:11:31;100698.31;;;1.83
67515;BMP280;60646;55.802;37.032;2024-02-28T00:13:58;100724.56;;;1.94
67515;BMP280;60646;55.802;37.032;2024-02-28T00:16:26;100718.63;;;1.86
67515;BMP280;60646;55.802;37.032;2024-02-28T00:18:51;100712.66;;;1.78
67515;BMP280;60646;55.802;37.032;2024-02-28T00:21:17;100696.19;;;1.71
67515;BMP280;60646;55.802;37.032;2024-02-28T00:23:43;100693.59;;;1.64
67515;BMP280;60646;55.802;37.032;2024-02-28T00:26:09;100708.94;;;1.76
67515;BMP280;60646;55.802;37.032;2024-02-28T00:28:34;100690.94;;;1.64
67515;BMP280;60646;55.802;37.032;2024-02-28T00:31:00;100698.44;;;1.72
67515;BMP280;60646;55.802;37.032;2024-02-28T00:33:44;100720.91;;;1.84
67515;BMP280;60646;55.802;37.032;2024-02-28T00:36:10;100686.44;;;1.68
67515;BMP280;60646;55.802;37.032;2024-02-28T00:38:36;100685.31;;;1.65
67515;BMP280;60646;55.802;37.032;2024-02-28T00:41:02;100683.41;;;1.66
67515;BMP280;60646;55.802;37.032;2024-02-28T00:43:28;100708.88;;;1.83
67515;BMP280;60646;55.802;37.032;2024-02-28T00:45:53;100686.06;;;1.66
67515;BMP280;60646;55.802;37.032;2024-02-28T00:48:22;100668.81;;;1.58
67515;BMP280;60646;55.802;37.032;2024-02-28T00:50:48;100656.78;;;1.57
67515;BMP280;60646;55.802;37.032;2024-02-28T00:53:13;100674.38;;;1.67
67515;BMP280;60646;55.802;37.032;2024-02-28T00:55:39;100689.38;;;1.77
67515;BMP280;60646;55.802;37.032;2024-02-28T00:58:05;100665.78;;;1.63
67515;BMP280;60646;55.802;37.032;2024-02-28T01:00:31;100659.41;;;1.57
67515;BMP280;60646;55.802;37.032;2024-02-28T01:02:57;100660.16;;;1.57
67515;BMP280;60646;55.802;37.032;2024-02-28T01:05:22;100670.31;;;1.59
67515;BMP280;60646;55.802;37.032;2024-02-28T01:07:48;100659.03;;;1.55
67515;BMP280;60646;55.802;37.032;2024-02-28T01:10:14;100669.22;;;1.53
67515;BMP280;60646;55.802;37.032;2024-02-28T01:12:40;100662.88;;;1.47
67515;BMP280;60646;55.802;37.032;2024-02-28T01:15:06;100672.22;;;1.55
67515;BMP280;60646;55.802;37.032;2024-02-28T01:17:32;100664.41;;;1.44
67515;BMP280;60646;55.802;37.032;2024-02-28T01:19:58;100679.03;;;1.49
67515;BMP280;60646;55.802;37.032;2024-02-28T01:22:24;100681.28;;;1.50
67515;BMP280;60646;55.802;37.032;2024-02-28T01:24:50;100682.03;;;1.51
67515;BMP280;60646;55.802;37.032;2024-02-28T01:27:16;100683.16;;;1.53
67515;BMP280;60646;55.802;37.032;2024-02-28T01:29:41;100667.72;;;1.52
67515;BMP280;60646;55.802;37.032;2024-02-28T01:32:08;100665.50;;;1.47
67515;BMP280;60646;55.802;37.032;2024-02-28T01:34:34;100662.47;;;1.52
67515;BMP280;60646;55.802;37.032;2024-02-28T01:37:00;100652.75;;;1.42
67515;BMP280;60646;55.802;37.032;2024-02-28T01:39:25;100667.00;;;1.48
67515;BMP280;60646;55.802;37.032;2024-02-28T01:41:54;100687.97;;;1.62
67515;BMP280;60646;55.802;37.032;2024-02-28T01:44:21;100681.19;;;1.61
67515;BMP280;60646;55.802;37.032;2024-02-28T01:46:47;100641.50;;;1.37
67515;BMP280;60646;55.802;37.032;2024-02-28T01:49:13;100674.44;;;1.60
67515;BMP280;60646;55.802;37.032;2024-02-28T01:51:39;100633.25;;;1.35
67515;BMP280;60646;55.802;37.032;2024-02-28T01:54:06;100650.50;;;1.44
67515;BMP280;60646;55.802;37.032;2024-02-28T01:56:32;100652.00;;;1.45
67515;BMP280;60646;55.802;37.032;2024-02-28T01:58:57;100645.22;;;1.44
67515;BMP280;60646;55.802;37.032;2024-02-28T02:01:24;100620.94;;;1.29
67515;BMP280;60646;55.802;37.032;2024-02-28T02:03:52;100650.13;;;1.45
67515;BMP280;60646;55.802;37.032;2024-02-28T02:06:18;100646.00;;;1.41
67515;BMP280;60646;55.802;37.032;2024-02-28T02:08:44;100642.25;;;1.38
67515;BMP280;60646;55.802;37.032;2024-02-28T02:11:09;100658.72;;;1.49
67515;BMP280;60646;55.802;37.032;2024-02-28T02:13:35;100659.13;;;1.48
67515;BMP280;60646;55.802;37.032;2024-02-28T02:16:02;100647.19;;;1.36
67515;BMP280;60646;55.802;37.032;2024-02-28T02:18:28;100644.22;;;1.30
67515;BMP280;60646;55.802;37.032;2024-02-28T02:21:02;100652.81;;;1.34
67515;BMP280;60646;55.802;37.032;2024-02-28T02:23:30;100655.09;;;1.32
67515;BMP280;60646;55.802;37.032;2024-02-28T02:25:56;100649.88;;;1.29
67515;BMP280;60646;55.802;37.032;2024-02-28T02:28:22;100650.63;;;1.29
67515;BMP280;60646;55.802;37.032;2024-02-28T02:30:47;100657.38;;;1.30
67515;BMP280;60646;55.802;37.032;2024-02-28T02:33:14;100657.41;;;1.23
67515;BMP280;60646;55.802;37.032;2024-02-28T02:35:39;100650.69;;;1.22
67515;BMP280;60646;55.802;37.032;2024-02-28T02:38:05;100645.75;;;1.24
67515;BMP280;60646;55.802;37.032;2024-02-28T02:40:32;100649.13;;;1.28
67515;BMP280;60646;55.802;37.032;2024-02-28T02:42:58;100631.53;;;1.15
67515;BMP280;60646;55.802;37.032;2024-02-28T02:45:24;100650.66;;;1.26
67515;BMP280;60646;55.802;37.032;2024-02-28T02:47:50;100636.06;;;1.18
67515;BMP280;60646;55.802;37.032;2024-02-28T02:50:15;100646.91;;;1.23
67515;BMP280;60646;55.802;37.032;2024-02-28T02:52:41;100626.69;;;1.13
67515;BMP280;60646;55.802;37.032;2024-02-28T02:55:07;100646.13;;;1.23
67515;BMP280;60646;55.802;37.032;2024-02-28T02:57:35;100645.03;;;1.20
67515;BMP280;60646;55.802;37.032;2024-02-28T03:00:01;100643.91;;;1.21
67515;BMP280;60646;55.802;37.032;2024-02-28T03:02:31;100641.63;;;1.23
67515;BMP280;60646;55.802;37.032;2024-02-28T03:04:57;100631.16;;;1.16
67515;BMP280;60646;55.802;37.032;2024-02-28T03:07:23;100625.19;;;1.12
67515;BMP280;60646;55.802;37.032;2024-02-28T03:09:49;100641.63;;;1.23
67515;BMP280;60646;55.802;37.032;2024-02-28T03:12:15;100636.44;;;1.16
67515;BMP280;60646;55.802;37.032;2024-02-28T03:14:41;100640.88;;;1.23
67515;BMP280;60646;55.802;37.032;2024-02-28T03:17:07;100646.88;;;1.30
67515;BMP280;60646;55.802;37.032;2024-02-28T03:19:33;100643.81;;;1.32
67515;BMP280;60646;55.802;37.032;2024-02-28T03:22:01;100613.16;;;1.11
67515;BMP280;60646;55.802;37.032;2024-02-28T03:24:26;100614.63;;;1.16
67515;BMP280;60646;55.802;37.032;2024-02-28T03:26:52;100629.25;;;1.20
67515;BMP280;60646;55.802;37.032;2024-02-28T03:29:18;100624.78;;;1.17
67515;BMP280;60646;55.802;37.032;2024-02-28T03:31:44;100631.94;;;1.13
67515;BMP280;60646;55.802;37.032;2024-02-28T03:34:09;100632.69;;;1.10
67515;BMP280;60646;55.802;37.032;2024-02-28T03:36:35;100627.84;;;1.05
67515;BMP280;60646;55.802;37.032;2024-02-28T03:39:02;100632.72;;;1.07
67515;BMP280;60646;55.802;37.032;2024-02-28T03:41:28;100624.47;;;1.05
67515;BMP280;60646;55.802;37.032;2024-02-28T03:43:54;100636.44;;;1.16
67515;BMP280;60646;55.802;37.032;2024-02-28T03:46:38;100630.44;;;1.12
67515;BMP280;60646;55.802;37.032;2024-02-28T03:49:04;100640.16;;;1.19
67515;BMP280;60646;55.802;37.032;2024-02-28T03:51:29;100631.94;;;1.13
67515;BMP280;60646;55.802;37.032;2024-02-28T03:53:55;100656.25;;;1.28
67515;BMP280;60646;55.802;37.032;2024-02-28T03:56:25;100631.94;;;1.10
67515;BMP280;60646;55.802;37.032;2024-02-28T03:58:52;100639.41;;;1.18
67515;BMP280;60646;55.802;37.032;2024-02-28T04:01:18;100659.66;;;1.28
67515;BMP280;60646;55.802;37.032;2024-02-28T04:03:44;100643.94;;;1.18
67515;BMP280;60646;55.802;37.032;2024-02-28T04:06:10;100634.16;;;1.15
67515;BMP280;60646;55.802;37.032;2024-02-28T04:08:36;100647.63;;;1.27
67515;BMP280;60646;55.802;37.032;2024-02-28T04:11:02;100596.34;;;0.98
67515;BMP280;60646;55.802;37.032;2024-02-28T04:13:28;100618.41;;;1.11
67515;BMP280;60646;55.802;37.032;2024-02-28T04:15:54;100624.06;;;1.13
67515;BMP280;60646;55.802;37.032;2024-02-28T04:18:20;100622.16;;;1.10
67515;BMP280;60646;55.802;37.032;2024-02-28T04:20:46;100617.72;;;1.04
67515;BMP280;60646;55.802;37.032;2024-02-28T04:23:11;100629.72;;;1.08
67515;BMP280;60646;55.802;37.032;2024-02-28T04:25:37;100621.81;;;1.08
67515;BMP280;60646;55.802;37.032;2024-02-28T04:28:06;100628.19;;;1.11
67515;BMP280;60646;55.802;37.032;2024-02-28T04:30:34;100624.88;;;1.03
67515;BMP280;60646;55.802;37.032;2024-02-28T04:33:00;100630.13;;;1.03
67515;BMP280;60646;55.802;37.032;2024-02-28T04:35:26;100612.91;;;0.95
67515;BMP280;60646;55.802;37.032;2024-02-28T04:37:52;100643.59;;;1.12
67515;BMP280;60646;55.802;37.032;2024-02-28T04:40:18;100624.50;;;0.98
67515;BMP280;60646;55.802;37.032;2024-02-28T04:42:44;100622.25;;;0.96
67515;BMP280;60646;55.802;37.032;2024-02-28T04:45:10;100646.97;;;1.13
67515;BMP280;60646;55.802;37.032;2024-02-28T04:47:37;100633.50;;;1.00
67515;BMP280;60646;55.802;37.032;2024-02-28T04:50:03;100646.97;;;1.13
67515;BMP280;60646;55.802;37.032;2024-02-28T04:52:31;100622.25;;;0.96
67515;BMP280;60646;55.802;37.032;2024-02-28T04:54:57;100617.78;;;0.93
67515;BMP280;60646;55.802;37.032;2024-02-28T04:57:23;100635.78;;;0.98
67515;BMP280;60646;55.802;37.032;2024-02-28T04:59:49;100629.81;;;0.94
67515;BMP280;60646;55.802;37.032;2024-02-28T05:02:15;100653.00;;;1.13
67515;BMP280;60646;55.802;37.032;2024-02-28T05:04:42;100647.34;;;1.11
67515;BMP280;60646;55.802;37.032;2024-02-28T05:07:08;100642.47;;;1.13
67515;BMP280;60646;55.802;37.032;2024-02-28T05:09:37;100632.72;;;1.07
67515;BMP280;60646;55.802;37.032;2024-02-28T05:12:07;100657.38;;;1.30
67515;BMP280;60646;55.802;37.032;2024-02-28T05:14:43;100637.16;;;1.20
67515;BMP280;60646;55.802;37.032;2024-02-28T05:17:09;100641.28;;;1.21
67515;BMP280;60646;55.802;37.032;2024-02-28T05:19:35;100641.63;;;1.23
67515;BMP280;60646;55.802;37.032;2024-02-28T05:22:01;100643.84;;;1.28
67515;BMP280;60646;55.802;37.032;2024-02-28T05:24:27;100644.56;;;1.32
67515;BMP280;60646;55.802;37.032;2024-02-28T05:26:53;100615.38;;;1.16
67515;BMP280;60646;55.802;37.032;2024-02-28T05:29:18;100644.13;;;1.37
67515;BMP280;60646;55.802;37.032;2024-02-28T05:31:44;100638.13;;;1.41
67515;BMP280;60646;55.802;37.032;2024-02-28T05:34:10;100623.53;;;1.32
67515;BMP280;60646;55.802;37.032;2024-02-28T05:36:36;100641.44;;;1.48
67515;BMP280;60646;55.802;37.032;2024-02-28T05:39:02;100648.16;;;1.53
67515;BMP280;60646;55.802;37.032;2024-02-28T05:41:31;100651.09;;;1.62
67515;BMP280;60646;55.802;37.032;2024-02-28T05:43:57;100639.44;;;1.59
67515;BMP280;60646;55.802;37.032;2024-02-28T05:46:22;100650.31;;;1.65
67515;BMP280;60646;55.802;37.032;2024-02-28T05:48:49;100625.59;;;1.52
67515;BMP280;60646;55.802;37.032;2024-02-28T05:51:16;100636.09;;;1.59
67515;BMP280;60646;55.802;37.032;2024-02-28T05:53:42;100680.91;;;1.93
67515;BMP280;60646;55.802;37.032;2024-02-28T05:56:09;100677.09;;;1.97
67515;BMP280;60646;55.802;37.032;2024-02-28T05:58:46;100674.13;;;1.95
67515;BMP280;60646;55.802;37.032;2024-02-28T06:01:15;100682.28;;;2.08
67515;BMP280;60646;55.802;37.032;2024-02-28T06:03:41;100645.50;;;1.97
67515;BMP280;60646;55.802;37.032;2024-02-28T06:06:07;100646.94;;;2.02
67515;BMP280;60646;55.802;37.032;2024-02-28T06:08:34;100668.56;;;2.23
67515;BMP280;60646;55.802;37.032;2024-02-28T06:11:01;100652.78;;;2.20
67515;BMP280;60646;55.802;37.032;2024-02-28T06:13:27;100624.66;;;2.10
67515;BMP280;60646;55.802;37.032;2024-02-28T06:15:55;100628.28;;;2.23
67515;BMP280;60646;55.802;37.032;2024-02-28T06:18:22;100645.06;;;2.36
67515;BMP280;60646;55.802;37.032;2024-02-28T06:20:48;100632.28;;;2.35
67515;BMP280;60646;55.802;37.032;2024-02-28T06:23:15;100645.06;;;2.36
67515;BMP280;60646;55.802;37.032;2024-02-28T06:25:41;100655.41;;;2.54
67515;BMP280;60646;55.802;37.032;2024-02-28T06:28:06;100653.81;;;2.60
67515;BMP280;60646;55.802;37.032;2024-02-28T06:30:33;100645.56;;;2.58
67515;BMP280;60646;55.802;37.032;2024-02-28T06:32:59;100636.16;;;2.57
